Time;durP1;ratioP1;P1;durP2;ratioP2;P2;SDS_P1;SDS_P2;PMS_P1;PMS_P2;Temp;Humidity;BMP_temperature;BMP_pressure;BME280_temperature;BME280_humidity;BME280_pressure;Samples;Min_cycle;Max_cycle;Signal;HPM_P1;HPM_P2
2024/03/28 00:02:05;;;;;;;2.03;0.82;;;18.40;86.50;;;;;;4995242;28;20497;-36
2024/03/28 00:04:32;;;;;;;1.35;0.63;;;18.40;86.60;;;;;;4998918;28;20031;-36
2024/03/28 00:06:57;;;;;;;0.80;0.50;;;18.40;86.50;;;;;;4999056;28;20369;-37
2024/03/28 00:09:23;;;;;;;0.90;0.60;;;18.40;86.50;;;;;;4998919;28;20398;-36
2024/03/28 00:11:48;;;;;;;1.30;0.65;;;18.40;86.50;;;;;;4999193;28;20027;-36
2024/03/28 00:14:14;;;;;;;0.75;0.50;;;18.40;86.40;;;;;;4998942;28;20536;-36
2024/03/28 00:16:40;;;;;;;0.90;0.60;;;18.40;86.40;;;;;;4998860;28;20094;-36
2024/03/28 00:19:06;;;;;;;0.60;0.57;;;18.30;86.40;;;;;;4998776;28;20109;-35
2024/03/28 00:21:32;;;;;;;1.35;0.65;;;18.30;86.40;;;;;;4998932;28;20032;-36
2024/03/28 00:23:57;;;;;;;0.63;0.52;;;18.30;86.40;;;;;;4999147;28;20033;-36
2024/03/28 00:26:23;;;;;;;1.33;0.50;;;18.40;86.50;;;;;;4998737;28;20029;-35
2024/03/28 00:28:49;;;;;;;1.23;0.88;;;18.30;86.40;;;;;;4998659;28;20052;-36
2024/03/28 00:31:15;;;;;;;1.33;0.88;;;18.30;86.40;;;;;;4998753;28;20030;-36
2024/03/28 00:33:40;;;;;;;1.05;0.70;;;18.30;86.50;;;;;;4998741;28;20050;-34
2024/03/28 00:36:07;;;;;;;0.77;0.47;;;18.30;86.50;;;;;;4998640;28;20034;-36
2024/03/28 00:38:32;;;;;;;2.17;0.70;;;18.30;86.50;;;;;;4998651;28;20101;-36
2024/03/28 00:40:58;;;;;;;2.45;0.85;;;18.30;86.50;;;;;;4998528;28;20114;-36
2024/03/28 00:43:23;;;;;;;0.80;0.60;;;18.30;86.50;;;;;;4998609;28;20037;-36
2024/03/28 00:45:52;;;;;;;1.48;0.63;;;18.30;86.50;;;;;;5027005;23;20064;-35
2024/03/28 00:48:19;;;;;;;0.80;0.60;;;18.30;86.50;;;;;;5018815;28;20026;-31
2024/03/28 00:50:55;;;;;;;1.00;0.60;;;18.20;86.50;;;;;;5018344;28;20025;-34
2024/03/28 00:53:20;;;;;;;1.88;0.60;;;18.20;86.40;;;;;;5018380;28;20037;-32
2024/03/28 00:55:46;;;;;;;1.08;0.77;;;18.30;86.50;;;;;;5018191;28;20030;-31
2024/03/28 00:58:13;;;;;;;0.70;0.50;;;18.20;86.40;;;;;;5018391;28;20052;-32
2024/03/28 01:00:40;;;;;;;0.98;0.70;;;18.20;86.40;;;;;;5018170;28;20057;-32
2024/03/28 01:03:06;;;;;;;1.05;0.68;;;18.20;86.40;;;;;;5018320;28;20025;-31
2024/03/28 01:05:32;;;;;;;1.42;0.60;;;18.20;86.40;;;;;;5018166;28;20392;-32
2024/03/28 01:07:57;;;;;;;0.70;0.60;;;18.20;86.40;;;;;;5018289;28;20026;-32
2024/03/28 01:10:23;;;;;;;2.28;0.63;;;18.20;86.40;;;;;;5019511;28;20100;-31
2024/03/28 01:12:48;;;;;;;0.82;0.57;;;18.20;87.10;;;;;;5017776;28;20498;-32
2024/03/28 01:15:14;;;;;;;0.50;0.50;;;18.20;86.30;;;;;;5014597;28;20037;-31
2024/03/28 01:17:40;;;;;;;2.63;0.63;;;18.20;86.30;;;;;;5014957;28;20459;-32
2024/03/28 01:20:07;;;;;;;1.08;0.63;;;18.20;86.20;;;;;;5014928;28;20096;-32
2024/03/28 01:22:33;;;;;;;0.98;0.70;;;18.20;86.20;;;;;;5014929;28;20080;-31
2024/03/28 01:24:58;;;;;;;1.00;0.50;;;18.20;86.20;;;;;;5014681;28;20018;-31
2024/03/28 01:27:24;;;;;;;1.52;0.50;;;18.10;86.10;;;;;;5014730;28;20026;-31
2024/03/28 01:29:53;;;;;;;0.93;0.68;;;18.20;86.20;;;;;;5014754;28;20034;-31
2024/03/28 01:32:21;;;;;;;1.02;0.65;;;18.10;86.10;;;;;;5014765;28;20072;-31
2024/03/28 01:34:47;;;;;;;1.00;0.45;;;18.10;86.10;;;;;;5015078;28;20076;-32
2024/03/28 01:37:13;;;;;;;1.25;0.50;;;18.10;86.10;;;;;;5014518;28;20026;-32
2024/03/28 01:39:39;;;;;;;0.68;0.50;;;18.10;86.10;;;;;;5014303;28;20096;-31
2024/03/28 01:42:05;;;;;;;0.80;0.60;;;18.10;86.10;;;;;;5014570;28;20469;-31
2024/03/28 01:44:31;;;;;;;0.80;0.55;;;18.10;86.00;;;;;;5014521;28;20106;-32
2024/03/28 01:47:00;;;;;;;0.77;0.40;;;18.10;86.00;;;;;;5014592;28;20038;-32
2024/03/28 01:49:27;;;;;;;1.08;0.60;;;18.10;86.00;;;;;;5014330;28;20095;-32
2024/03/28 01:51:54;;;;;;;1.27;0.52;;;18.10;85.90;;;;;;5014088;28;20503;-32
2024/03/28 01:54:21;;;;;;;0.75;0.50;;;18.10;85.90;;;;;;5014441;28;20091;-31
2024/03/28 01:56:47;;;;;;;0.60;0.50;;;18.10;86.00;;;;;;5014694;28;20068;-31
2024/03/28 01:59:15;;;;;;;1.17;0.63;;;18.10;86.00;;;;;;5012708;28;20064;-31
2024/03/28 02:01:44;;;;;;;0.90;0.63;;;18.10;86.00;;;;;;5014052;28;20024;-31
2024/03/28 02:04:10;;;;;;;0.70;0.52;;;18.10;86.00;;;;;;5014218;28;20057;-32
2024/03/28 02:06:37;;;;;;;0.52;0.40;;;18.10;86.00;;;;;;5013821;28;20118;-31
2024/03/28 02:09:03;;;;;;;0.80;0.63;;;18.10;86.70;;;;;;5014253;28;20521;-31
2024/03/28 02:11:30;;;;;;;0.55;0.47;;;18.10;85.90;;;;;;5013784;28;20481;-32
2024/03/28 02:13:55;;;;;;;2.72;0.68;;;18.10;85.80;;;;;;5014289;28;20037;-31
2024/03/28 02:16:21;;;;;;;1.35;0.60;;;18.00;85.90;;;;;;5013728;28;20495;-31
2024/03/28 02:18:47;;;;;;;0.57;0.50;;;18.10;85.90;;;;;;5013858;28;20026;-31
2024/03/28 02:21:12;;;;;;;1.20;0.70;;;18.00;85.80;;;;;;5013648;28;20022;-31
2024/03/28 02:23:38;;;;;;;0.55;0.45;;;18.00;85.80;;;;;;5013851;28;20485;-31
2024/03/28 02:26:04;;;;;;;0.90;0.63;;;18.00;85.80;;;;;;5013802;28;20417;-32
2024/03/28 02:28:36;;;;;;;0.75;0.60;;;18.00;85.80;;;;;;5019756;28;20026;-32
2024/03/28 02:31:02;;;;;;;0.45;0.40;;;18.00;85.80;;;;;;5020653;28;20050;-32
2024/03/28 02:33:28;;;;;;;0.95;0.60;;;18.00;85.80;;;;;;5013825;28;20065;-32
2024/03/28 02:35:53;;;;;;;0.63;0.50;;;18.00;85.90;;;;;;5013392;28;20034;-32
2024/03/28 02:38:19;;;;;;;0.52;0.50;;;18.00;85.90;;;;;;5013661;28;20022;-31
2024/03/28 02:40:45;;;;;;;0.80;0.60;;;18.00;85.90;;;;;;5014169;28;20294;-31
2024/03/28 02:43:10;;;;;;;1.52;0.52;;;18.00;85.90;;;;;;5013601;28;20105;-31
2024/03/28 02:45:37;;;;;;;1.38;0.50;;;18.00;85.80;;;;;;5013157;28;20049;-31
2024/03/28 02:48:04;;;;;;;1.02;0.63;;;18.00;85.70;;;;;;5013404;28;20029;-32
2024/03/28 02:50:29;;;;;;;2.47;0.63;;;18.00;85.70;;;;;;5013114;28;20034;-32
2024/03/28 02:52:55;;;;;;;0.63;0.45;;;18.00;85.70;;;;;;5013182;28;20036;-30
2024/03/28 02:55:20;;;;;;;0.70;0.50;;;18.00;85.60;;;;;;5012974;28;20036;-31
2024/03/28 02:57:46;;;;;;;1.25;0.70;;;18.00;85.70;;;;;;5012977;28;20496;-30
2024/03/28 03:00:12;;;;;;;0.90;0.60;;;18.00;85.60;;;;;;5012923;28;20120;-31
2024/03/28 03:02:38;;;;;;;1.17;0.60;;;18.00;85.60;;;;;;5013008;28;20022;-32
2024/03/28 03:05:04;;;;;;;0.57;0.40;;;18.00;85.60;;;;;;5012687;28;20025;-31
2024/03/28 03:07:29;;;;;;;1.67;0.60;;;18.00;85.60;;;;;;5012829;28;20025;-30
2024/03/28 03:09:55;;;;;;;0.75;0.50;;;17.90;85.50;;;;;;5012789;28;20481;-30
2024/03/28 03:12:21;;;;;;;0.73;0.50;;;17.90;85.50;;;;;;5012830;28;20037;-30
2024/03/28 03:14:49;;;;;;;0.93;0.50;;;17.90;85.40;;;;;;5012756;28;20030;-31
2024/03/28 03:17:15;;;;;;;0.70;0.50;;;17.90;85.40;;;;;;5013012;28;20057;-31
2024/03/28 03:19:40;;;;;;;0.80;0.50;;;18.00;85.50;;;;;;5012439;28;20030;-30
2024/03/28 03:22:06;;;;;;;1.20;0.70;;;17.90;85.40;;;;;;5012663;28;20370;-31
2024/03/28 03:24:35;;;;;;;1.50;0.55;;;17.90;85.30;;;;;;5011499;28;20493;-30
2024/03/28 03:27:15;;;;;;;0.85;0.57;;;17.90;85.30;;;;;;5013291;28;20109;-32
2024/03/28 03:35:12;;;;;;;0.85;0.68;;;17.90;85.10;;;;;;5012771;28;20057;-32
2024/03/28 03:37:38;;;;;;;0.80;0.50;;;17.90;85.80;;;;;;5011911;28;20448;-30
2024/03/28 03:40:09;;;;;;;1.05;0.43;;;17.90;85.10;;;;;;5012227;28;20491;-30
2024/03/28 03:42:36;;;;;;;1.02;0.60;;;17.90;85.00;;;;;;5012330;28;20054;-30
2024/03/28 03:45:02;;;;;;;0.68;0.50;;;17.90;85.00;;;;;;5012334;28;20029;-31
2024/03/28 03:47:28;;;;;;;0.40;0.40;;;17.90;84.90;;;;;;5012217;28;20072;-30
2024/03/28 03:49:53;;;;;;;0.80;0.60;;;17.90;85.60;;;;;;5012203;28;20034;-31
2024/03/28 03:52:19;;;;;;;0.77;0.57;;;17.80;84.80;;;;;;5012250;28;20026;-31
2024/03/28 03:54:45;;;;;;;0.70;0.52;;;17.90;84.90;;;;;;5012623;28;20038;-32
2024/03/28 03:57:11;;;;;;;0.80;0.60;;;17.80;84.80;;;;;;5012013;28;20037;-32
2024/03/28 03:59:38;;;;;;;0.68;0.50;;;17.80;84.80;;;;;;5012136;28;20037;-31
2024/03/28 04:02:07;;;;;;;1.02;0.50;;;17.80;84.80;;;;;;5012455;28;20026;-30
2024/03/28 04:04:32;;;;;;;0.85;0.70;;;17.80;84.70;;;;;;5012084;28;20018;-31
2024/03/28 04:06:58;;;;;;;0.60;0.57;;;17.80;84.70;;;;;;5012007;28;20093;-30
2024/03/28 04:09:24;;;;;;;0.90;0.40;;;17.80;84.60;;;;;;5011845;28;20030;-31
2024/03/28 04:11:50;;;;;;;1.02;0.70;;;17.80;84.60;;;;;;5012027;28;20033;-31
2024/03/28 04:14:16;;;;;;;1.13;0.50;;;17.80;84.60;;;;;;5012100;28;20041;-31
2024/03/28 04:16:42;;;;;;;1.08;0.60;;;17.80;84.60;;;;;;5012029;28;20036;-30
2024/03/28 04:19:08;;;;;;;0.75;0.60;;;17.80;84.50;;;;;;5012230;28;20026;-30
2024/03/28 04:21:34;;;;;;;0.40;0.40;;;17.80;84.50;;;;;;5011917;28;20022;-32
2024/03/28 04:24:02;;;;;;;0.68;0.57;;;17.80;84.40;;;;;;5011768;28;20026;-30
2024/03/28 04:26:29;;;;;;;0.77;0.65;;;17.80;84.40;;;;;;5011780;28;20026;-30
2024/03/28 04:28:54;;;;;;;0.77;0.60;;;17.70;84.30;;;;;;5010557;28;20033;-30
2024/03/28 04:31:21;;;;;;;1.20;0.60;;;17.70;84.30;;;;;;5011863;28;20472;-32
2024/03/28 04:33:47;;;;;;;1.08;0.57;;;17.80;84.30;;;;;;5011859;28;20105;-30
2024/03/28 04:36:13;;;;;;;1.05;0.70;;;17.70;84.30;;;;;;5011735;28;20084;-30
2024/03/28 04:38:41;;;;;;;0.73;0.47;;;17.80;84.20;;;;;;5011617;28;20029;-31
2024/03/28 04:41:07;;;;;;;1.50;0.52;;;17.70;84.10;;;;;;5011803;28;20152;-31
2024/03/28 04:43:33;;;;;;;2.55;0.80;;;17.80;84.20;;;;;;5011932;28;20113;-31
2024/03/28 04:45:59;;;;;;;0.55;0.50;;;17.70;84.10;;;;;;5011961;28;20038;-32
2024/03/28 04:48:24;;;;;;;0.82;0.60;;;17.70;84.10;;;;;;5012204;28;20109;-31
2024/03/28 04:50:50;;;;;;;1.10;0.60;;;17.70;84.00;;;;;;5015563;28;20030;-31
2024/03/28 04:53:15;;;;;;;0.65;0.60;;;17.80;84.00;;;;;;5015923;28;20037;-31
2024/03/28 04:55:41;;;;;;;0.70;0.60;;;17.70;84.00;;;;;;5015701;28;20026;-31
2024/03/28 04:58:06;;;;;;;0.52;0.47;;;17.80;84.00;;;;;;5015395;28;20026;-31
2024/03/28 05:00:32;;;;;;;0.35;0.32;;;17.70;84.00;;;;;;5015245;28;20030;-31
2024/03/28 05:02:58;;;;;;;0.60;0.50;;;17.70;83.90;;;;;;5015332;28;20037;-32
2024/03/28 05:05:23;;;;;;;0.82;0.50;;;17.70;83.80;;;;;;5015235;28;20029;-32
2024/03/28 05:07:49;;;;;;;1.48;0.60;;;17.70;83.80;;;;;;5015113;28;20022;-32
2024/03/28 05:10:15;;;;;;;1.00;0.50;;;17.70;83.80;;;;;;5015125;28;20083;-32
2024/03/28 05:12:41;;;;;;;1.05;0.73;;;17.70;83.70;;;;;;5015053;28;20109;-31
2024/03/28 05:15:06;;;;;;;0.60;0.60;;;17.70;83.70;;;;;;5014908;28;20018;-31
2024/03/28 05:17:33;;;;;;;0.77;0.50;;;17.70;83.60;;;;;;5015340;28;20033;-31
2024/03/28 05:19:58;;;;;;;2.25;0.52;;;17.70;83.60;;;;;;5013717;28;20106;-31
2024/03/28 05:22:26;;;;;;;1.13;0.80;;;17.70;83.60;;;;;;5013740;28;20041;-31
2024/03/28 05:24:51;;;;;;;0.60;0.50;;;17.70;83.50;;;;;;5014895;28;20596;-31
2024/03/28 05:27:17;;;;;;;1.15;0.60;;;17.70;83.50;;;;;;5014691;28;20042;-32
2024/03/28 05:29:43;;;;;;;1.02;0.60;;;17.70;83.60;;;;;;5014857;28;20057;-32
2024/03/28 05:32:08;;;;;;;1.00;0.77;;;17.60;83.50;;;;;;5014785;28;20496;-32
2024/03/28 05:34:34;;;;;;;0.85;0.70;;;17.60;83.40;;;;;;5014761;28;20022;-31
2024/03/28 05:37:00;;;;;;;0.70;0.60;;;17.70;83.50;;;;;;5015809;28;20045;-31
2024/03/28 05:39:27;;;;;;;0.88;0.70;;;17.60;83.40;;;;;;5020326;28;20021;-31
2024/03/28 05:41:53;;;;;;;0.70;0.60;;;17.70;83.50;;;;;;5017407;28;20054;-34
2024/03/28 05:44:18;;;;;;;0.90;0.70;;;17.60;83.40;;;;;;5014518;28;20112;-31
2024/03/28 05:46:45;;;;;;;1.70;0.90;;;17.60;83.40;;;;;;5014302;28;20053;-31
2024/03/28 05:49:11;;;;;;;1.67;1.20;;;17.60;83.40;;;;;;5014375;28;20030;-31
2024/03/28 05:51:36;;;;;;;1.30;0.98;;;17.60;83.40;;;;;;5014137;28;20018;-31
2024/03/28 05:54:02;;;;;;;1.30;0.80;;;17.60;83.50;;;;;;5014520;28;20088;-32
2024/03/28 05:56:27;;;;;;;1.60;0.98;;;17.60;83.50;;;;;;5014218;28;20473;-31
2024/03/28 05:58:53;;;;;;;0.95;0.77;;;17.60;83.70;;;;;;5014444;28;20484;-31
2024/03/28 06:01:19;;;;;;;1.10;0.85;;;17.60;83.70;;;;;;5013690;28;20029;-32
2024/03/28 06:03:44;;;;;;;1.27;0.90;;;17.60;83.80;;;;;;5014311;28;20385;-31
2024/03/28 06:06:10;;;;;;;1.27;0.80;;;17.60;83.90;;;;;;5014350;28;20072;-31
2024/03/28 06:08:36;;;;;;;1.27;0.73;;;17.60;84.00;;;;;;5014053;28;20389;-31
2024/03/28 06:11:04;;;;;;;1.70;0.80;;;17.60;84.00;;;;;;5014074;28;20022;-31
2024/03/28 06:13:33;;;;;;;1.02;0.80;;;17.60;84.00;;;;;;5014306;28;20497;-31
2024/03/28 06:16:00;;;;;;;1.02;0.70;;;17.60;84.10;;;;;;5014203;28;20087;-32
2024/03/28 06:18:27;;;;;;;0.88;0.73;;;17.60;84.10;;;;;;5014777;28;20049;-31
2024/03/28 06:21:03;;;;;;;0.90;0.77;;;17.60;84.20;;;;;;5014354;28;20497;-31
2024/03/28 06:23:30;;;;;;;1.02;0.85;;;17.60;84.20;;;;;;5013800;28;20033;-31
2024/03/28 06:25:56;;;;;;;0.80;0.60;;;17.60;84.20;;;;;;5013659;28;20026;-32
2024/03/28 06:28:21;;;;;;;1.42;0.80;;;17.60;84.20;;;;;;5013679;28;20499;-32
2024/03/28 06:30:53;;;;;;;0.80;0.73;;;17.60;84.30;;;;;;5013637;28;20041;-31
2024/03/28 06:33:22;;;;;;;2.85;0.82;;;17.60;84.30;;;;;;5013609;28;20499;-31
2024/03/28 06:35:48;;;;;;;1.10;0.75;;;17.60;84.40;;;;;;5013388;28;20060;-32
2024/03/28 06:38:14;;;;;;;1.02;0.80;;;17.60;84.40;;;;;;5013470;28;20388;-31
2024/03/28 06:40:40;;;;;;;1.20;0.90;;;17.60;84.40;;;;;;5013308;28;20022;-31
2024/03/28 06:43:05;;;;;;;1.00;0.80;;;17.60;84.50;;;;;;5013390;28;20034;-32
2024/03/28 06:45:31;;;;;;;0.93;0.70;;;17.60;84.50;;;;;;5013075;28;20041;-31
2024/03/28 06:47:57;;;;;;;1.10;0.80;;;17.60;84.60;;;;;;5013657;28;20026;-32
2024/03/28 06:50:23;;;;;;;1.13;0.90;;;17.60;84.60;;;;;;5013513;28;20056;-31
2024/03/28 06:52:51;;;;;;;1.65;0.85;;;17.60;84.70;;;;;;5013332;28;20504;-32
2024/03/28 06:55:17;;;;;;;0.80;0.80;;;17.50;84.60;;;;;;5013296;28;20034;-32
2024/03/28 06:57:43;;;;;;;1.10;0.75;;;17.50;84.70;;;;;;5013177;28;20218;-32
2024/03/28 07:00:09;;;;;;;0.98;0.73;;;17.60;84.80;;;;;;5012962;28;20060;-32
2024/03/28 07:02:35;;;;;;;1.10;0.80;;;17.60;84.80;;;;;;5012986;28;20022;-32
2024/03/28 07:05:02;;;;;;;0.70;0.50;;;17.50;84.70;;;;;;5012945;28;20022;-32
2024/03/28 07:07:28;;;;;;;1.40;0.70;;;17.50;84.80;;;;;;5013511;28;20022;-32
2024/03/28 07:09:54;;;;;;;1.13;0.82;;;17.50;84.80;;;;;;5012842;28;20026;-32
2024/03/28 07:12:19;;;;;;;1.10;0.80;;;17.50;84.80;;;;;;5013806;28;20033;-34
2024/03/28 07:14:45;;;;;;;0.88;0.70;;;17.50;84.90;;;;;;5013335;28;20034;-34
2024/03/28 07:17:11;;;;;;;0.82;0.70;;;17.50;84.90;;;;;;5013571;28;20156;-34
2024/03/28 07:19:36;;;;;;;0.93;0.70;;;17.50;85.00;;;;;;5012863;28;20370;-32
2024/03/28 07:22:03;;;;;;;1.30;0.70;;;17.50;85.00;;;;;;5011923;28;20030;-32
2024/03/28 07:24:28;;;;;;;1.05;0.70;;;17.60;85.10;;;;;;5013087;28;20030;-32
2024/03/28 07:26:54;;;;;;;1.35;0.90;;;17.50;85.10;;;;;;5012759;28;20022;-31
2024/03/28 07:29:19;;;;;;;0.80;0.50;;;17.50;85.10;;;;;;5012818;28;20034;-32
2024/03/28 07:31:46;;;;;;;1.02;0.60;;;17.60;85.20;;;;;;5013314;28;20069;-32
2024/03/28 07:34:12;;;;;;;1.00;0.70;;;17.60;85.20;;;;;;5014014;28;20025;-34
2024/03/28 07:36:38;;;;;;;0.68;0.57;;;17.50;85.20;;;;;;5013520;28;20041;-32
2024/03/28 07:39:04;;;;;;;1.30;0.70;;;17.60;85.30;;;;;;5013247;28;20037;-32
2024/03/28 07:41:30;;;;;;;0.90;0.60;;;17.60;85.20;;;;;;5013102;28;20022;-32
2024/03/28 07:43:56;;;;;;;0.70;0.50;;;17.60;85.30;;;;;;5013186;28;20056;-32
2024/03/28 07:46:23;;;;;;;0.77;0.50;;;17.60;85.30;;;;;;5012470;28;20034;-32
2024/03/28 07:48:49;;;;;;;1.52;0.70;;;17.60;85.30;;;;;;5012689;28;20065;-32
2024/03/28 07:51:14;;;;;;;1.13;0.60;;;17.60;85.30;;;;;;5013072;28;20501;-33
2024/03/28 07:53:40;;;;;;;1.00;0.55;;;17.60;85.40;;;;;;5012195;28;20112;-33
2024/03/28 07:56:05;;;;;;;2.25;0.80;;;17.60;85.40;;;;;;5012755;28;20116;-32
2024/03/28 07:58:31;;;;;;;0.93;0.75;;;17.60;85.30;;;;;;5012921;28;20026;-32
2024/03/28 08:01:07;;;;;;;0.52;0.40;;;17.60;85.30;;;;;;5012952;28;20400;-32
2024/03/28 08:03:34;;;;;;;1.00;0.50;;;17.60;85.30;;;;;;5012930;28;20018;-31
2024/03/28 08:06:01;;;;;;;0.77;0.60;;;17.60;85.30;;;;;;5012711;28;20381;-32
2024/03/28 08:08:26;;;;;;;0.80;0.63;;;17.60;85.30;;;;;;5011365;28;20054;-32
2024/03/28 08:10:52;;;;;;;1.63;0.73;;;17.60;85.30;;;;;;5012676;28;20068;-32
2024/03/28 08:13:18;;;;;;;0.60;0.40;;;17.60;85.30;;;;;;5012461;28;20061;-32
2024/03/28 08:15:44;;;;;;;1.10;0.80;;;17.60;85.40;;;;;;5012232;28;20084;-32
2024/03/28 08:18:10;;;;;;;2.80;1.10;;;17.70;84.20;;;;;;5011078;28;20030;-32
2024/03/28 08:20:36;;;;;;;3.65;1.20;;;17.60;83.30;;;;;;5012429;28;20036;-32
2024/03/28 08:23:02;;;;;;;4.95;1.10;;;17.60;83.10;;;;;;5013447;28;20022;-32
2024/03/28 08:25:27;;;;;;;2.00;1.15;;;17.50;83.00;;;;;;5016381;28;20029;-32
2024/03/28 08:27:53;;;;;;;1.20;1.08;;;17.50;83.90;;;;;;5016088;28;20025;-32
2024/03/28 08:30:19;;;;;;;3.00;0.93;;;17.50;83.20;;;;;;5016259;28;20049;-32
2024/03/28 08:32:45;;;;;;;2.33;1.15;;;17.50;83.20;;;;;;5016743;28;20057;-32
2024/03/28 08:35:11;;;;;;;2.60;0.90;;;17.50;83.20;;;;;;5016533;28;20026;-32
2024/03/28 08:37:39;;;;;;;1.90;0.98;;;17.50;83.30;;;;;;5016762;28;20036;-32
2024/03/28 08:40:09;;;;;;;1.92;1.17;;;17.60;84.20;;;;;;5016757;28;20161;-32
2024/03/28 08:42:39;;;;;;;2.65;0.80;;;17.50;83.40;;;;;;5022539;28;20018;-32
2024/03/28 08:45:09;;;;;;;1.90;0.90;;;17.60;84.20;;;;;;5021515;28;20079;-32
2024/03/28 08:47:40;;;;;;;1.88;0.85;;;17.60;83.40;;;;;;5024694;28;20133;-32
2024/03/28 08:50:06;;;;;;;1.35;0.90;;;17.60;83.50;;;;;;5024668;28;20068;-32
2024/03/28 08:52:32;;;;;;;1.77;0.73;;;17.60;83.50;;;;;;5017761;28;20036;-32
2024/03/28 08:54:57;;;;;;;3.13;1.00;;;17.60;83.50;;;;;;5017187;28;20288;-32
2024/03/28 08:57:23;;;;;;;2.08;0.70;;;17.60;83.50;;;;;;5017620;28;20038;-32
2024/03/28 08:59:52;;;;;;;0.95;0.55;;;17.60;83.50;;;;;;5017931;28;20022;-32
2024/03/28 09:02:20;;;;;;;0.82;0.50;;;17.60;83.50;;;;;;5017443;28;20087;-32
2024/03/28 09:04:46;;;;;;;3.10;0.63;;;17.60;83.50;;;;;;5017201;28;20105;-32
2024/03/28 09:07:15;;;;;;;1.08;0.63;;;17.60;83.50;;;;;;5017161;28;20029;-32
2024/03/28 09:09:42;;;;;;;1.02;0.60;;;17.60;83.50;;;;;;5017014;28;20113;-32
2024/03/28 09:12:12;;;;;;;1.15;0.60;;;17.60;83.50;;;;;;5017791;28;20507;-32
2024/03/28 09:14:38;;;;;;;0.95;0.47;;;17.70;83.50;;;;;;5017379;28;20168;-32
2024/03/28 09:17:04;;;;;;;0.63;0.40;;;17.70;83.50;;;;;;5014361;28;20038;-32
2024/03/28 09:19:31;;;;;;;1.05;0.50;;;17.70;83.50;;;;;;5015342;28;20026;-31
2024/03/28 09:21:56;;;;;;;0.60;0.40;;;17.70;83.40;;;;;;5015052;28;20444;-31
2024/03/28 09:24:22;;;;;;;0.93;0.50;;;17.70;83.40;;;;;;5015055;28;20379;-31
2024/03/28 09:26:48;;;;;;;0.63;0.45;;;17.70;83.40;;;;;;5014879;28;20052;-32
2024/03/28 09:29:19;;;;;;;0.68;0.38;;;17.70;83.30;;;;;;5015004;28;20366;-31
2024/03/28 09:31:48;;;;;;;0.93;0.50;;;17.70;83.30;;;;;;5014776;28;20042;-32
2024/03/28 09:34:17;;;;;;;0.60;0.30;;;17.70;83.20;;;;;;5014364;28;20028;-31
2024/03/28 09:36:43;;;;;;;0.82;0.35;;;17.70;83.20;;;;;;5014473;28;20026;-32
2024/03/28 09:39:13;;;;;;;1.15;0.35;;;17.70;83.20;;;;;;5014705;28;20323;-32
2024/03/28 09:41:43;;;;;;;1.13;0.35;;;17.70;82.70;;;;;;5015042;28;20058;-32
2024/03/28 09:44:13;;;;;;;0.10;0.10;;;17.80;81.60;;;;;;5014557;28;20474;-32
2024/03/28 09:46:42;;;;;;;0.20;0.10;;;17.70;80.70;;;;;;5014433;28;20034;-32
2024/03/28 09:49:11;;;;;;;0.82;0.17;;;17.50;80.30;;;;;;5014334;28;20041;-32
2024/03/28 09:51:39;;;;;;;2.10;0.22;;;17.40;80.20;;;;;;5013323;28;20485;-32
2024/03/28 09:54:06;;;;;;;0.10;0.10;;;17.40;80.20;;;;;;5014703;28;20025;-32
2024/03/28 09:56:33;;;;;;;0.40;0.30;;;17.40;80.20;;;;;;5014519;28;20014;-32
2024/03/28 09:58:59;;;;;;;0.30;0.15;;;17.40;80.50;;;;;;5014542;28;20033;-32
2024/03/28 10:01:28;;;;;;;0.73;0.17;;;17.40;80.80;;;;;;5014380;28;20477;-32
2024/03/28 10:04:19;;;;;;;0.20;0.10;;;17.40;81.10;;;;;;5014485;28;20037;-32
2024/03/28 10:06:55;;;;;;;0.30;0.20;;;17.50;81.50;;;;;;5014321;28;20115;-32
2024/03/28 10:09:22;;;;;;;0.25;0.20;;;17.50;81.90;;;;;;5014256;28;20049;-31
2024/03/28 10:11:48;;;;;;;0.20;0.10;;;17.50;82.10;;;;;;5014214;28;20100;-32
2024/03/28 10:14:16;;;;;;;0.45;0.10;;;17.50;82.30;;;;;;5014240;28;20030;-32
2024/03/28 10:16:42;;;;;;;0.28;0.10;;;17.60;82.50;;;;;;5014145;28;20030;-32
2024/03/28 10:19:09;;;;;;;1.20;0.10;;;17.60;82.60;;;;;;5014912;28;20050;-32
2024/03/28 10:21:36;;;;;;;0.20;0.10;;;17.70;82.80;;;;;;5014224;28;20033;-32
2024/03/28 10:24:17;;;;;;;0.13;0.08;;;17.70;82.80;;;;;;5014520;28;20381;-32
2024/03/28 10:26:43;;;;;;;0.10;0.10;;;17.80;83.00;;;;;;5013887;28;20393;-32
2024/03/28 10:29:12;;;;;;;0.63;0.17;;;17.80;83.00;;;;;;5013946;28;20030;-31
2024/03/28 10:31:41;;;;;;;1.00;0.28;;;17.80;83.00;;;;;;5012960;28;20190;-32
2024/03/28 10:34:14;;;;;;;0.10;0.03;;;17.90;83.00;;;;;;5012539;28;20034;-32
2024/03/28 10:36:40;;;;;;;0.10;0.08;;;18.00;83.00;;;;;;5013907;28;20025;-32
2024/03/28 10:39:08;;;;;;;0.65;0.25;;;18.00;83.00;;;;;;5013443;28;20428;-32
2024/03/28 10:41:34;;;;;;;0.82;0.25;;;18.10;82.90;;;;;;5013765;28;20309;-32
2024/03/28 10:44:01;;;;;;;1.60;0.32;;;18.10;82.10;;;;;;5013799;28;20057;-32
2024/03/28 10:46:30;;;;;;;0.60;0.30;;;18.10;81.20;;;;;;5013414;28;20038;-31
2024/03/28 10:49:05;;;;;;;0.82;0.40;;;18.20;80.80;;;;;;5013402;28;20024;-31
2024/03/28 10:51:42;;;;;;;1.17;0.30;;;18.20;80.40;;;;;;5012058;28;20441;-32
2024/03/28 10:54:28;;;;;;;1.73;0.20;;;18.30;80.30;;;;;;5013631;28;20026;-31
2024/03/28 10:56:54;;;;;;;1.77;0.25;;;18.40;80.20;;;;;;5013256;28;20014;-32
2024/03/28 10:59:25;;;;;;;0.57;0.17;;;18.40;80.10;;;;;;5013118;28;20018;-32
2024/03/28 11:01:53;;;;;;;0.68;0.20;;;18.50;80.00;;;;;;5013047;28;20022;-32
2024/03/28 11:04:20;;;;;;;1.40;0.28;;;18.50;80.00;;;;;;5013093;28;20113;-32
2024/03/28 11:06:46;;;;;;;1.65;0.40;;;18.60;79.90;;;;;;5012937;28;20473;-33
2024/03/28 11:09:13;;;;;;;0.32;0.22;;;18.70;79.80;;;;;;5011718;28;20022;-33
2024/03/28 11:11:40;;;;;;;0.95;0.32;;;18.80;79.70;;;;;;5012904;28;20448;-33
2024/03/28 11:14:06;;;;;;;0.70;0.30;;;18.90;79.60;;;;;;5013624;28;20461;-33
2024/03/28 11:16:32;;;;;;;1.20;0.40;;;18.90;79.60;;;;;;5012780;28;20034;-32
2024/03/28 11:19:02;;;;;;;0.40;0.20;;;19.00;79.60;;;;;;5013128;28;20091;-33
2024/03/28 11:21:29;;;;;;;0.30;0.17;;;19.10;79.60;;;;;;5011313;28;20121;-32
2024/03/28 11:23:54;;;;;;;0.60;0.30;;;19.20;79.60;;;;;;5011615;28;20106;-32
2024/03/28 11:26:25;;;;;;;0.13;0.10;;;19.30;79.50;;;;;;5012829;28;20460;-34
2024/03/28 11:29:05;;;;;;;1.90;0.30;;;19.40;79.50;;;;;;5012821;28;20018;-32
2024/03/28 11:31:32;;;;;;;0.47;0.30;;;19.50;79.30;;;;;;5012722;28;20440;-32
2024/03/28 11:34:04;;;;;;;0.55;0.20;;;19.60;79.20;;;;;;5012778;28;20021;-32
2024/03/28 11:36:31;;;;;;;0.32;0.20;;;19.70;79.00;;;;;;5012548;28;20018;-32
2024/03/28 11:38:57;;;;;;;1.50;0.35;;;19.90;78.80;;;;;;5012570;28;20034;-32
2024/03/28 11:41:24;;;;;;;0.60;0.20;;;20.00;78.50;;;;;;5012615;28;20088;-32
2024/03/28 11:43:51;;;;;;;0.47;0.25;;;20.10;78.20;;;;;;5011547;28;20520;-32
2024/03/28 11:46:18;;;;;;;0.32;0.22;;;20.20;77.90;;;;;;5013095;28;20037;-33
2024/03/28 11:48:44;;;;;;;3.72;0.30;;;20.30;77.80;;;;;;5012390;28;20036;-34
2024/03/28 11:51:10;;;;;;;0.65;0.20;;;20.30;77.40;;;;;;5012648;28;20029;-34
2024/03/28 11:53:38;;;;;;;2.53;0.17;;;20.40;76.30;;;;;;5017111;28;20468;-34
2024/03/28 11:56:04;;;;;;;0.32;0.20;;;20.70;75.10;;;;;;5019708;28;20025;-33
2024/03/28 11:58:30;;;;;;;0.52;0.10;;;21.00;74.80;;;;;;5012669;28;20389;-33
2024/03/28 12:01:03;;;;;;;0.80;0.13;;;21.20;74.20;;;;;;5012712;28;20032;-33
2024/03/28 12:03:30;;;;;;;0.30;0.20;;;21.20;73.90;;;;;;5012812;28;20109;-33
2024/03/28 12:05:57;;;;;;;0.85;0.22;;;21.20;73.20;;;;;;5012287;28;20084;-34
2024/03/28 12:08:24;;;;;;;1.58;0.17;;;21.20;72.50;;;;;;5012239;28;20394;-33
2024/03/28 12:10:50;;;;;;;0.70;0.10;;;21.30;72.00;;;;;;5012320;28;20101;-33
2024/03/28 12:13:18;;;;;;;0.20;0.03;;;21.40;71.60;;;;;;5012189;28;20033;-33
2024/03/28 12:15:43;;;;;;;0.10;0.00;;;21.50;71.50;;;;;;5012361;28;20026;-33
2024/03/28 12:18:10;;;;;;;0.40;0.10;;;21.50;71.30;;;;;;5012284;28;20029;-33
2024/03/28 12:20:39;;;;;;;0.32;0.10;;;21.60;71.20;;;;;;5012016;28;20167;-34
2024/03/28 12:23:05;;;;;;;0.10;0.10;;;21.60;71.00;;;;;;5012035;28;20026;-35
2024/03/28 12:25:31;;;;;;;0.75;0.20;;;21.70;70.90;;;;;;5012051;28;20068;-33
2024/03/28 12:28:00;;;;;;;0.63;0.20;;;21.70;70.80;;;;;;5011940;28;20540;-32
2024/03/28 12:30:30;;;;;;;0.30;0.10;;;21.70;70.70;;;;;;5011872;28;20560;-32
2024/03/28 12:33:16;;;;;;;0.10;0.10;;;21.70;70.60;;;;;;5011963;28;20018;-33
2024/03/28 12:35:44;;;;;;;0.70;0.10;;;21.80;71.40;;;;;;5011759;28;20458;-34
2024/03/28 12:38:17;;;;;;;0.70;0.10;;;21.80;70.60;;;;;;5012115;28;20034;-33
2024/03/28 12:40:44;;;;;;;0.50;0.20;;;21.90;70.50;;;;;;5011759;28;20029;-33
2024/03/28 12:43:17;;;;;;;0.93;0.10;;;21.90;70.80;;;;;;5011887;28;20034;-34
2024/03/28 12:45:43;;;;;;;1.08;0.15;;;22.00;70.90;;;;;;5011750;28;20034;-36
2024/03/28 12:48:10;;;;;;;0.35;0.10;;;22.10;70.70;;;;;;5051768;23;20052;-32
2024/03/28 12:50:45;;;;;;;0.10;0.10;;;22.40;71.00;;;;;;5011237;28;20029;-32
2024/03/28 12:53:11;;;;;;;1.00;0.20;;;22.60;69.70;;;;;;5011885;28;20407;-33